< < Back
Terminal Aerodrome Forecast


Current Version              Previous Versions:   1  2  3  4  5  6  7  8  9  

Terminal Aerodrome Forecast

767
FTUS42 KJAX 011943 AAB
TAFGNV
TAF AMD
KGNV 011943Z 0120/0218 26011KT 3SM TSRA BKN040CB
      TEMPO 0120/0121 1SM TSRA OVC025CB
     FM012200 04007KT P6SM SCT040 BKN150
     FM020400 24003KT P6SM SCT150
     FM021400 25006KT P6SM SCT030 SCT250=

Latest METAR

028
SAUS70 KWBC 020900 RRG
MTRGNV
METAR KGNV 020853Z AUTO 00000KT 10SM CLR 22/21 A3006 RMK AO2 SLP177
T02170211 55011


USA.gov is the U.S. government's official web portal to all federal, state and local government web resources and services.